SÍGUENOS

APP INUMET

Disponible en Google Play

Productos aeronáuticos

  • SIGMET
  • METAR / SPECI
  • TAF
  • AIREP
  • Aviso de aeródromo
  • Pronárea
  • Carta superficie

Mensajes METAR de la última hora

SUAA 202200Z 34010KT 9999 FEW017 BKN070 BKN200 14/12 Q1012
SUCA 202200Z 34010KT 9999 SCT030 BKN060 15/13 Q1010
SULS 202200Z 30013K CAVOK 15/12 Q1011
SUMU 202200Z 32013KT 9999 FEW017 BKN070 14/13 Q1012 RERA TEMPO 5000 RA BR

Mensajes METAR de la última hora - Internacionales


Argentina
SAAR 202200Z 14015KT 9999 FEW018 BKN100 17/12 Q1010
SABE 202200Z 29003KT 200V300 CAVOK 16/12 Q1011
SACO 202200Z 16012KT 9999 SCT045 FEW050TCU 26/10 Q1007
SAEZ 202200Z 20002KT CAVOK 15/14 Q1010
SAME 202200Z 14013KT 9999 FEW040TCU SCT045 24/M01 Q1012
SAAR 202124Z 11015KT CAVOK 17/13 Q1009
Bolivia
SLCP 202200Z 36010KT 9999 FEW017 28/24 Q1009
SLLP 202200Z 12011KT 080V150 9999 FEW023 17/M12 Q1031
Brasil
SBBR 202200Z VRB02KT 9999 SCT040 FEW045TCU SCT100 25/17 Q1015
SBFI 202200Z 02002KT CAVOK 25/21 Q1007
SBFL 202200Z 04010KT 9999 FEW017 23/19 Q1013
SBGR 202200Z 10005KT 9999 BKN006 18/18 Q1016
SBPA 202200Z 13010KT CAVOK 24/16 Q1010
SBRJ 202200Z 17012KT 5000 -DZ BR BKN008 BKN025 OVC090 23/22 Q10 12
SBSP 202200Z 13011KT 9999 OVC010 18/16 Q1016
SBRJ 202125Z 16006KT 8000 BKN008 BKN030 OVC090 23/22 Q1012
Chile
SCCI 202200Z 25023KT 9999 SCT025 BKN080 10/04 Q1008 NOSIG
SCEL 202200Z 20011KT 9999 FEW180 21/03 Q1017 NOSIG
Ecuador
SEQM 202200Z 03007KT 9999 VCSH BKN033 BKN080 14/09 Q1023 NOSIG RMK A3022
EEUU
KMIA 202153Z 05007KT 10SM SCT029 SCT035 BKN047 26/19 A3002 RMK AO2 SLP164 T02560189
KDCA 202152Z 23008KT 10SM FEW250 10/M06 A3018 RMK AO2 SLP220 T01001061
KIAD 202152Z 20004KT 10SM FEW250 08/M05 A3017 RMK AO2 SLP216 T00781050
KJFK 202151Z 25018KT 10SM FEW060 SCT250 07/M03 A3010 RMK AO2 SLP192 T00721033
KLGA 202151Z 23011G16KT 10SM SCT060 BKN250 08/M04 A3007 RMK AO2 SLP182 T00781044
Francia
LFPO 202200Z 21005KT 180V240 9999 BKN013 09/07 Q1019 NOSIG
LFPO 202130Z 21006KT 190V250 9999 BKN014 SCT100 BKN230 09/07 Q1019 NOSIG
Paraguay
SGAS 202200Z 07004KT 030V090 9999 FEW033 BKN080 29/15 Q1005
Venezuela
SVMI 202200Z /////KT 9999 BKN016 29/25 Q1008

* Datos extraidos del Text DataServer de la NOAA (NOAA TEXT DATA SERVER)

Instituto Uruguayo de Meteorología

Dr. Javier Barrios Amorín 1488 - CP 11200
Mesa Central (598) 1895 - Desde el interior 21895

Montevideo - Uruguay